Terminal Aerodrome Forecast
Issued by NWS

Home | Current Version | Previous Version | Text Only | Print | Product List | Glossary On
Versions: 1 2 3 4 5 6 7 8 9 10 11 12 13 14 15 16 17 18
000
FTUS43 KDTX 230533
TAFPTK
TAF
KPTK 230533Z 2306/2406 32006KT 6SM BR BKN008 OVC015
     FM230800 32006KT 4SM BR OVC008
     FM231000 VRB04KT 2SM BR OVC005
     FM231400 VRB04KT 4SM BR OVC012
     FM231600 22005KT P6SM OVC022 PROB30 2318/2321 4SM -TSRA
      BKN025CB OVC035
     FM232100 28010KT P6SM BKN035
     FM240200 29006KT P6SM SCT035 BKN080=

USA.gov is the U.S. government's official web portal to all federal, state and local government web resources and services.